Time;durP1;ratioP1;P1;durP2;ratioP2;P2;SDS_P1;SDS_P2;PMS_P1;PMS_P2;Temp;Humidity;BMP_temperature;BMP_pressure;BME280_temperature;BME280_humidity;BME280_pressure;Samples;Min_cycle;Max_cycle;Signal;HPM_P1;HPM_P2
2022/05/07 00:00:14;;;;;;;21.20;19.10;;;12.10;99.90;;;;;;4968852;28;20047;-93
2022/05/07 00:02:40;;;;;;;22.25;20.05;;;12.10;99.90;;;;;;4958376;28;20047;-92
2022/05/07 00:05:06;;;;;;;24.80;22.38;;;12.10;99.90;;;;;;4992056;28;20124;-93
2022/05/07 00:07:31;;;;;;;24.95;22.52;;;12.10;99.90;;;;;;4977584;28;20995;-92
2022/05/07 00:09:57;;;;;;;23.35;20.95;;;12.10;99.90;;;;;;4964875;28;20023;-93
2022/05/07 00:12:22;;;;;;;24.63;22.02;;;12.10;99.90;;;;;;4938705;29;20046;-94
2022/05/07 00:14:48;;;;;;;25.73;23.23;;;12.10;99.90;;;;;;4953079;28;20096;-93
2022/05/07 00:19:58;;;;;;;23.60;21.35;;;12.10;99.90;;;;;;4951082;28;20122;-92
2022/05/07 00:22:23;;;;;;;25.15;22.65;;;12.10;99.90;;;;;;4947397;28;20047;-92
2022/05/07 00:24:49;;;;;;;24.80;22.20;;;12.20;99.90;;;;;;4941696;28;20488;-94
2022/05/07 00:27:15;;;;;;;24.60;22.13;;;12.20;99.90;;;;;;4963363;28;20050;-94
2022/05/07 00:29:41;;;;;;;24.95;22.50;;;12.20;99.90;;;;;;4966843;28;20039;-93
2022/05/07 00:32:07;;;;;;;27.08;24.48;;;12.20;99.90;;;;;;4915648;28;20051;-94
2022/05/07 00:34:33;;;;;;;25.60;22.90;;;12.20;99.90;;;;;;4954956;28;20401;-94
2022/05/07 00:36:58;;;;;;;26.15;23.42;;;12.20;99.90;;;;;;4964800;28;20055;-94
2022/05/07 00:39:25;;;;;;;25.13;22.55;;;12.20;99.90;;;;;;4964240;28;20046;-94
2022/05/07 00:41:52;;;;;;;25.55;23.05;;;12.30;99.90;;;;;;4966245;28;20057;-93
2022/05/07 00:44:17;;;;;;;26.73;24.08;;;12.30;99.90;;;;;;4959385;28;20065;-94
2022/05/07 00:46:45;;;;;;;25.77;23.17;;;12.30;99.90;;;;;;4959903;28;20469;-94
2022/05/07 00:49:10;;;;;;;26.30;23.63;;;12.30;99.90;;;;;;4942617;29;20074;-94
2022/05/07 00:51:37;;;;;;;24.52;22.15;;;12.30;99.90;;;;;;4932340;28;20046;-94
2022/05/07 00:54:05;;;;;;;26.58;23.90;;;12.40;99.90;;;;;;4940671;28;20089;-93
2022/05/07 00:56:32;;;;;;;26.20;23.70;;;12.30;99.90;;;;;;4956068;28;20110;-93
2022/05/07 00:58:58;;;;;;;26.65;23.92;;;12.40;99.90;;;;;;4966242;28;20034;-94
2022/05/07 01:01:25;;;;;;;25.88;23.38;;;12.40;99.90;;;;;;4958572;28;20047;-93
2022/05/07 01:03:52;;;;;;;25.75;23.15;;;12.40;99.90;;;;;;4941100;28;20050;-94
2022/05/07 01:06:18;;;;;;;25.02;22.52;;;12.50;99.90;;;;;;4942306;28;20039;-94
2022/05/07 01:08:45;;;;;;;24.52;22.13;;;12.60;99.90;;;;;;4950162;28;20047;-94
2022/05/07 01:11:11;;;;;;;25.75;23.05;;;12.50;99.90;;;;;;4970976;28;20054;-91
2022/05/07 01:13:38;;;;;;;26.13;23.45;;;12.50;99.90;;;;;;4934573;28;20043;-94
2022/05/07 01:16:04;;;;;;;25.40;22.77;;;12.50;99.90;;;;;;4944459;28;20043;-92
2022/05/07 01:18:30;;;;;;;26.77;24.15;;;12.50;99.90;;;;;;4969251;28;20085;-93
2022/05/07 01:20:57;;;;;;;26.98;24.40;;;12.50;99.90;;;;;;4961194;29;20051;-92
2022/05/07 01:23:24;;;;;;;26.98;24.33;;;12.50;99.90;;;;;;4973370;28;20047;-92
2022/05/07 01:25:50;;;;;;;27.13;24.45;;;12.50;99.90;;;;;;4970766;28;20050;-93
2022/05/07 01:28:15;;;;;;;27.05;24.23;;;12.60;99.90;;;;;;4943870;28;20049;-92
2022/05/07 01:30:41;;;;;;;26.52;23.90;;;12.60;99.90;;;;;;4928643;28;20047;-93
2022/05/07 01:33:06;;;;;;;27.27;24.42;;;12.60;99.90;;;;;;4955234;28;20051;-92
2022/05/07 01:35:32;;;;;;;28.23;25.25;;;12.60;99.90;;;;;;4946787;28;20516;-92
2022/05/07 01:37:58;;;;;;;26.63;23.92;;;12.60;99.90;;;;;;4950529;28;20126;-93
2022/05/07 01:40:23;;;;;;;26.05;23.40;;;12.60;99.90;;;;;;4969779;28;20491;-93
2022/05/07 01:42:49;;;;;;;25.92;23.42;;;12.60;99.90;;;;;;4925488;29;20110;-92
2022/05/07 01:45:14;;;;;;;26.52;23.75;;;12.60;99.90;;;;;;4947390;28;20046;-93
2022/05/07 01:50:26;;;;;;;26.55;24.05;;;12.60;99.90;;;;;;4939527;28;20071;-93
2022/05/07 01:52:51;;;;;;;25.95;23.30;;;12.60;99.90;;;;;;4943823;28;20043;-93
2022/05/07 01:55:17;;;;;;;26.55;23.80;;;12.60;99.90;;;;;;4940799;28;20045;-92
2022/05/07 01:57:42;;;;;;;26.80;24.00;;;12.60;99.90;;;;;;4953461;28;20085;-92
2022/05/07 02:00:11;;;;;;;27.92;25.23;;;12.60;99.90;;;;;;4968889;28;20057;-93
2022/05/07 02:02:37;;;;;;;26.25;23.67;;;12.60;99.90;;;;;;4967976;28;20058;-93
2022/05/07 02:05:02;;;;;;;26.48;23.98;;;12.70;99.90;;;;;;4971734;28;20043;-93
2022/05/07 02:07:28;;;;;;;28.13;25.42;;;12.60;99.90;;;;;;4952918;28;20144;-93
2022/05/07 02:09:54;;;;;;;28.23;25.33;;;12.70;99.90;;;;;;4965926;28;20050;-93
2022/05/07 02:12:19;;;;;;;28.17;25.48;;;12.70;99.90;;;;;;4968475;28;20506;-93
2022/05/07 02:14:45;;;;;;;28.20;25.50;;;12.70;99.90;;;;;;4951576;28;20039;-93
2022/05/07 02:17:11;;;;;;;26.90;24.20;;;12.70;99.90;;;;;;4942476;28;20531;-93
2022/05/07 02:19:37;;;;;;;28.73;25.98;;;12.70;99.90;;;;;;4952188;28;20055;-93
2022/05/07 02:22:02;;;;;;;29.25;26.25;;;12.70;99.90;;;;;;4963353;28;20066;-92
2022/05/07 02:24:28;;;;;;;27.85;25.15;;;12.70;99.90;;;;;;4961664;28;20039;-93
2022/05/07 02:26:54;;;;;;;28.55;25.75;;;12.70;99.90;;;;;;4951483;28;20049;-93
2022/05/07 02:29:20;;;;;;;27.65;24.77;;;12.70;99.90;;;;;;4965999;28;20074;-92
2022/05/07 02:32:03;;;;;;;28.73;25.73;;;12.70;99.90;;;;;;4941159;28;20046;-92
2022/05/07 02:34:38;;;;;;;27.42;24.83;;;12.80;99.90;;;;;;4951928;28;20046;-93
2022/05/07 02:37:04;;;;;;;27.92;25.15;;;12.70;99.90;;;;;;4968604;28;20039;-93
2022/05/07 02:39:30;;;;;;;27.95;25.35;;;12.70;99.90;;;;;;4942506;28;20106;-93
2022/05/07 02:44:40;;;;;;;27.88;25.27;;;12.70;99.90;;;;;;4958788;28;20134;-92
2022/05/07 02:47:06;;;;;;;29.20;26.33;;;12.70;99.90;;;;;;4951371;28;20480;-92
2022/05/07 02:49:32;;;;;;;29.38;26.42;;;12.70;99.90;;;;;;4939535;28;20294;-92
2022/05/07 02:51:57;;;;;;;29.75;26.85;;;12.70;99.90;;;;;;4942681;29;20126;-92
2022/05/07 02:54:23;;;;;;;28.55;25.75;;;12.70;99.90;;;;;;4964914;28;20130;-92
2022/05/07 02:56:48;;;;;;;29.02;26.13;;;12.70;99.90;;;;;;4921337;28;20396;-93
2022/05/07 02:59:14;;;;;;;29.02;26.13;;;12.70;99.90;;;;;;4963420;28;20384;-93
2022/05/07 03:01:42;;;;;;;28.65;25.80;;;12.70;99.90;;;;;;4960249;28;20047;-94
2022/05/07 03:04:09;;;;;;;28.80;25.90;;;12.70;99.90;;;;;;4932789;28;20157;-93
2022/05/07 03:06:34;;;;;;;28.88;26.08;;;12.70;99.90;;;;;;4925970;28;20129;-93
2022/05/07 03:09:00;;;;;;;29.73;26.83;;;12.70;99.90;;;;;;4949182;28;20142;-93
2022/05/07 03:11:26;;;;;;;28.45;25.75;;;12.70;99.90;;;;;;4967295;28;20051;-93
2022/05/07 03:13:52;;;;;;;28.20;25.38;;;12.70;99.90;;;;;;4946364;28;20078;-93
2022/05/07 03:16:18;;;;;;;28.52;25.75;;;12.70;99.90;;;;;;4968187;28;20061;-94
2022/05/07 03:18:43;;;;;;;28.75;25.95;;;12.80;99.90;;;;;;4962556;28;20055;-93
2022/05/07 03:21:09;;;;;;;27.73;25.02;;;12.70;99.90;;;;;;4986369;28;20043;-93
2022/05/07 03:23:35;;;;;;;27.42;24.73;;;12.70;99.90;;;;;;4965840;28;20528;-93
2022/05/07 03:26:01;;;;;;;30.05;27.13;;;12.70;99.90;;;;;;4954989;29;20168;-92
2022/05/07 03:28:26;;;;;;;29.02;26.23;;;12.70;99.90;;;;;;4965390;28;20043;-93
2022/05/07 03:30:52;;;;;;;29.35;26.38;;;12.70;99.90;;;;;;4931184;28;20500;-92
2022/05/07 03:33:17;;;;;;;29.63;26.83;;;12.70;99.90;;;;;;4970123;28;20071;-93
2022/05/07 03:35:47;;;;;;;28.77;25.98;;;12.60;99.90;;;;;;4930386;28;20047;-92
2022/05/07 03:38:12;;;;;;;29.23;26.33;;;12.70;99.90;;;;;;4937414;28;20130;-93
2022/05/07 03:40:38;;;;;;;29.75;26.85;;;12.70;99.90;;;;;;4946077;28;20193;-92
2022/05/07 03:43:05;;;;;;;30.23;27.30;;;12.70;99.90;;;;;;4965057;28;20101;-92
2022/05/07 03:45:32;;;;;;;30.30;27.30;;;12.70;99.90;;;;;;4942343;28;20117;-93
2022/05/07 03:47:59;;;;;;;30.75;27.55;;;12.60;99.90;;;;;;4945692;28;20047;-93
2022/05/07 03:50:24;;;;;;;30.33;27.33;;;12.70;99.90;;;;;;4964537;28;20518;-92
2022/05/07 03:55:41;;;;;;;32.63;29.33;;;12.70;99.90;;;;;;4940313;28;20051;-90
2022/05/07 03:58:10;;;;;;;30.67;27.63;;;12.60;99.90;;;;;;4961069;28;20051;-90
2022/05/07 04:00:37;;;;;;;31.38;28.17;;;12.60;99.90;;;;;;4973089;28;20039;-90
2022/05/07 04:03:04;;;;;;;32.97;29.67;;;12.60;99.90;;;;;;4929335;28;20039;-91
2022/05/07 04:05:30;;;;;;;31.90;28.67;;;12.60;99.90;;;;;;4939118;28;20134;-90
2022/05/07 04:07:55;;;;;;;32.10;28.70;;;12.60;99.90;;;;;;4962464;28;20162;-91
2022/05/07 04:10:21;;;;;;;32.47;29.08;;;12.60;99.90;;;;;;4938418;29;20071;-91
2022/05/07 04:12:49;;;;;;;31.75;28.55;;;12.60;99.90;;;;;;4949608;28;20082;-90
2022/05/07 04:15:14;;;;;;;34.72;31.13;;;12.60;99.90;;;;;;4928773;28;20043;-90
2022/05/07 04:17:40;;;;;;;35.55;31.95;;;12.60;99.90;;;;;;4953435;28;20052;-90
2022/05/07 04:20:06;;;;;;;35.65;32.00;;;12.60;99.90;;;;;;4959947;28;20046;-91
2022/05/07 04:22:32;;;;;;;32.63;29.35;;;12.60;99.90;;;;;;4940294;28;20057;-91
2022/05/07 04:24:58;;;;;;;34.13;30.63;;;12.60;99.90;;;;;;4952638;28;20042;-91
2022/05/07 04:27:23;;;;;;;35.05;31.33;;;12.60;99.90;;;;;;4953673;28;20039;-91
2022/05/07 04:29:49;;;;;;;33.28;29.80;;;12.60;99.90;;;;;;4962820;28;20054;-90
2022/05/07 04:32:14;;;;;;;33.47;30.15;;;12.70;99.90;;;;;;4954641;28;20046;-91
2022/05/07 04:34:40;;;;;;;34.13;30.63;;;12.70;99.90;;;;;;4946388;28;20380;-91
2022/05/07 04:37:06;;;;;;;33.72;30.23;;;12.70;99.90;;;;;;4963926;28;20047;-90
2022/05/07 04:39:34;;;;;;;32.63;29.42;;;12.70;99.90;;;;;;4950912;28;20046;-91
2022/05/07 04:42:02;;;;;;;32.95;29.75;;;12.70;99.90;;;;;;4968885;28;20051;-90
2022/05/07 04:44:28;;;;;;;33.90;30.42;;;12.70;99.90;;;;;;4957211;28;20126;-90
2022/05/07 04:46:53;;;;;;;33.50;30.00;;;12.80;99.90;;;;;;4942608;28;20122;-93
2022/05/07 04:49:19;;;;;;;33.55;30.23;;;12.80;99.90;;;;;;4936538;28;20085;-90
2022/05/07 04:51:47;;;;;;;33.20;29.85;;;12.90;99.90;;;;;;4947543;28;20062;-90
2022/05/07 04:54:13;;;;;;;32.47;29.20;;;12.90;99.90;;;;;;4948019;28;20491;-90
2022/05/07 04:56:39;;;;;;;33.03;29.80;;;12.90;99.90;;;;;;4963213;28;20043;-91
2022/05/07 04:59:04;;;;;;;33.80;30.45;;;12.90;99.90;;;;;;4960446;28;20042;-90
2022/05/07 05:01:30;;;;;;;33.80;30.55;;;12.90;99.90;;;;;;4968700;28;20509;-90
2022/05/07 05:03:56;;;;;;;34.63;31.27;;;12.90;99.90;;;;;;4966455;28;20354;-90
2022/05/07 05:06:21;;;;;;;32.97;29.77;;;13.00;99.90;;;;;;4947969;29;20083;-91
2022/05/07 05:08:47;;;;;;;33.85;30.45;;;13.00;99.90;;;;;;4944319;28;20182;-90
2022/05/07 05:11:13;;;;;;;34.15;30.95;;;13.00;99.90;;;;;;4929502;28;20086;-90
2022/05/07 05:13:38;;;;;;;35.72;32.15;;;13.00;99.90;;;;;;4961248;28;20086;-90
2022/05/07 05:16:04;;;;;;;33.42;30.35;;;13.00;99.90;;;;;;4948440;29;20047;-90
2022/05/07 05:18:30;;;;;;;35.30;32.03;;;13.00;99.90;;;;;;4963509;28;20062;-90
2022/05/07 05:20:55;;;;;;;34.00;30.58;;;13.10;99.90;;;;;;4932644;29;20070;-89
2022/05/07 05:23:22;;;;;;;33.53;30.20;;;13.10;99.90;;;;;;4892195;29;20130;-93
2022/05/07 05:25:48;;;;;;;34.30;31.05;;;13.10;99.90;;;;;;4926505;29;20055;-92
2022/05/07 05:28:14;;;;;;;36.25;32.92;;;13.10;99.90;;;;;;4929560;29;20035;-93
2022/05/07 05:30:39;;;;;;;35.95;32.45;;;13.10;99.90;;;;;;4929828;29;20053;-93
2022/05/07 05:33:05;;;;;;;37.47;33.78;;;13.10;99.90;;;;;;4924467;29;20431;-91
2022/05/07 05:35:31;;;;;;;37.28;33.60;;;13.20;99.90;;;;;;4936270;29;21683;-87
2022/05/07 05:37:56;;;;;;;37.38;33.88;;;13.20;99.90;;;;;;4911898;29;20051;-90
2022/05/07 05:40:22;;;;;;;35.88;32.38;;;13.30;99.90;;;;;;4942030;28;20122;-89
2022/05/07 05:42:47;;;;;;;36.58;32.88;;;13.30;99.90;;;;;;4917103;29;20441;-88
2022/05/07 05:45:13;;;;;;;36.30;33.05;;;13.30;99.90;;;;;;4934921;29;20405;-91
2022/05/07 05:47:38;;;;;;;36.58;33.03;;;13.40;99.90;;;;;;4934353;28;20530;-90
2022/05/07 05:50:05;;;;;;;36.47;33.08;;;13.40;99.90;;;;;;4930695;29;20048;-90
2022/05/07 05:52:31;;;;;;;36.17;32.67;;;13.40;99.90;;;;;;4894442;29;20115;-90
2022/05/07 05:54:56;;;;;;;34.22;30.92;;;13.50;99.90;;;;;;4956465;28;20111;-91
2022/05/07 05:57:22;;;;;;;34.00;30.70;;;13.50;99.90;;;;;;4945597;28;20104;-91
2022/05/07 05:59:48;;;;;;;33.78;30.58;;;13.60;99.90;;;;;;4934962;29;20134;-90
2022/05/07 06:02:17;;;;;;;35.38;32.05;;;13.70;99.90;;;;;;4921370;29;20047;-89
2022/05/07 06:04:43;;;;;;;33.08;30.02;;;13.70;99.90;;;;;;4920419;29;20047;-90
2022/05/07 06:07:09;;;;;;;36.05;32.65;;;13.80;99.90;;;;;;4927820;29;20039;-90
2022/05/07 06:09:34;;;;;;;34.13;30.92;;;13.90;99.90;;;;;;4924258;29;20087;-91
2022/05/07 06:12:00;;;;;;;34.35;31.05;;;14.00;99.90;;;;;;4934667;29;20050;-90
2022/05/07 06:14:26;;;;;;;34.10;30.73;;;14.00;99.90;;;;;;4937794;29;20547;-92
2022/05/07 06:16:51;;;;;;;35.42;32.03;;;14.10;99.90;;;;;;4932290;28;20043;-89
2022/05/07 06:19:17;;;;;;;34.17;30.77;;;14.20;99.90;;;;;;4927818;28;20425;-92
2022/05/07 06:21:43;;;;;;;32.88;29.65;;;14.20;99.90;;;;;;4961046;28;20050;-92
2022/05/07 06:29:36;;;;;;;31.52;28.42;;;14.40;99.90;;;;;;4963673;28;20055;-92
2022/05/07 06:32:02;;;;;;;32.85;29.65;;;14.50;99.90;;;;;;4965073;28;20516;-91
2022/05/07 06:34:28;;;;;;;31.75;28.60;;;14.70;99.90;;;;;;4971271;28;20068;-91
2022/05/07 06:36:54;;;;;;;31.92;28.83;;;14.80;99.90;;;;;;4963509;28;20528;-90
2022/05/07 06:39:20;;;;;;;32.03;28.90;;;14.90;99.90;;;;;;4940050;28;20043;-91
2022/05/07 06:41:48;;;;;;;32.60;29.48;;;15.00;99.90;;;;;;4950394;28;20126;-93
2022/05/07 06:44:13;;;;;;;31.55;28.35;;;15.00;99.90;;;;;;4944418;28;20042;-93
2022/05/07 06:46:39;;;;;;;29.02;26.33;;;15.00;99.90;;;;;;4927434;29;20039;-93
2022/05/07 06:49:04;;;;;;;30.08;27.00;;;15.10;99.90;;;;;;4968329;28;20049;-92
2022/05/07 06:51:32;;;;;;;31.30;28.17;;;15.10;99.90;;;;;;4926536;28;20180;-95
2022/05/07 06:53:57;;;;;;;30.13;27.05;;;15.20;99.90;;;;;;4967914;28;20047;-94
2022/05/07 06:56:23;;;;;;;29.23;26.42;;;15.20;99.90;;;;;;4938719;29;20592;-92
2022/05/07 06:58:49;;;;;;;27.77;25.08;;;15.30;99.90;;;;;;4924265;28;20073;-89
2022/05/07 07:01:15;;;;;;;28.05;25.10;;;15.40;99.90;;;;;;4943913;28;20475;-88
2022/05/07 07:03:41;;;;;;;27.90;25.20;;;15.40;99.90;;;;;;4959725;28;20047;-86
2022/05/07 07:06:06;;;;;;;27.90;25.10;;;15.40;99.90;;;;;;4937918;28;20101;-88
2022/05/07 07:08:32;;;;;;;26.90;24.23;;;15.50;99.90;;;;;;4932473;29;20050;-89
2022/05/07 07:10:59;;;;;;;26.75;23.88;;;15.60;99.90;;;;;;4937195;28;20054;-87
2022/05/07 07:13:24;;;;;;;26.33;23.65;;;15.80;99.90;;;;;;4926005;28;20035;-87
2022/05/07 07:15:50;;;;;;;26.52;23.75;;;15.80;99.90;;;;;;4940066;28;20053;-89
2022/05/07 07:18:16;;;;;;;26.08;23.45;;;15.90;99.90;;;;;;4951425;28;20151;-89
2022/05/07 07:20:44;;;;;;;25.08;22.48;;;15.90;99.90;;;;;;4926878;28;20380;-88
2022/05/07 07:23:11;;;;;;;25.80;23.27;;;16.00;99.90;;;;;;4960115;28;20042;-89
2022/05/07 07:25:39;;;;;;;26.38;23.65;;;16.10;99.90;;;;;;4958600;28;20043;-88
2022/05/07 07:28:05;;;;;;;26.13;23.55;;;16.10;99.90;;;;;;4956141;28;20161;-91
2022/05/07 07:30:31;;;;;;;24.63;22.10;;;16.10;99.90;;;;;;4933188;28;20045;-92
2022/05/07 07:32:56;;;;;;;25.52;22.88;;;16.20;99.90;;;;;;4924257;28;20130;-88
2022/05/07 07:35:22;;;;;;;23.48;20.98;;;16.30;99.90;;;;;;4937306;28;20047;-89
2022/05/07 07:37:48;;;;;;;19.20;17.08;;;16.40;99.90;;;;;;4944072;28;20051;-87
2022/05/07 07:40:14;;;;;;;18.98;15.70;;;16.40;99.90;;;;;;4936249;29;20051;-86
2022/05/07 07:42:42;;;;;;;17.95;16.08;;;16.40;99.90;;;;;;4947981;28;20134;-88
2022/05/07 07:47:56;;;;;;;19.27;16.63;;;16.50;99.90;;;;;;4952636;28;20059;-91
2022/05/07 07:50:23;;;;;;;19.65;16.50;;;16.50;99.90;;;;;;4946168;28;20059;-90
2022/05/07 07:52:53;;;;;;;20.42;16.80;;;16.40;99.90;;;;;;4964332;28;20050;-92
2022/05/07 07:55:19;;;;;;;26.13;17.80;;;16.40;99.90;;;;;;4938159;28;20051;-91
2022/05/07 07:57:44;;;;;;;18.63;15.90;;;16.50;99.90;;;;;;4950050;28;20050;-93
2022/05/07 08:00:11;;;;;;;16.95;14.40;;;16.50;99.90;;;;;;4920459;28;20039;-96
2022/05/07 08:02:55;;;;;;;17.27;14.02;;;16.60;99.90;;;;;;4946955;28;20062;-90
2022/05/07 08:05:30;;;;;;;17.38;13.38;;;16.70;99.90;;;;;;4962843;28;20043;-91
2022/05/07 08:13:24;;;;;;;18.13;13.68;;;17.10;99.90;;;;;;4962942;28;20043;-93
2022/05/07 08:15:50;;;;;;;17.08;13.38;;;17.20;99.90;;;;;;4947470;28;20103;-91
2022/05/07 08:18:16;;;;;;;16.33;13.57;;;17.30;99.90;;;;;;4966927;28;20050;-95
2022/05/07 08:20:43;;;;;;;18.92;15.20;;;17.40;99.90;;;;;;4943304;28;20050;-94
2022/05/07 08:23:09;;;;;;;17.40;14.57;;;17.40;99.90;;;;;;4948505;28;20046;-92
2022/05/07 08:25:35;;;;;;;18.00;14.95;;;17.40;99.90;;;;;;4954038;28;20101;-91
2022/05/07 08:28:01;;;;;;;18.23;15.20;;;17.50;99.90;;;;;;4965022;28;20042;-91
2022/05/07 08:30:26;;;;;;;19.13;15.55;;;17.60;99.90;;;;;;4964908;28;20047;-92
2022/05/07 08:32:52;;;;;;;19.50;15.70;;;17.60;99.90;;;;;;4967224;28;20373;-90
2022/05/07 08:35:18;;;;;;;18.98;15.02;;;17.60;99.90;;;;;;4944395;28;20039;-92
2022/05/07 08:37:45;;;;;;;17.23;15.43;;;17.60;99.90;;;;;;4951729;28;20057;-94
2022/05/07 08:40:14;;;;;;;22.95;19.90;;;17.70;99.90;;;;;;4968565;28;20126;-89
2022/05/07 08:42:40;;;;;;;24.08;21.40;;;17.60;99.90;;;;;;4940408;28;20055;-93
2022/05/07 08:45:06;;;;;;;23.33;20.67;;;17.50;99.90;;;;;;4944490;28;20050;-91
2022/05/07 08:47:32;;;;;;;21.75;19.33;;;17.60;99.90;;;;;;4949770;28;20093;-93
2022/05/07 08:49:57;;;;;;;22.80;19.90;;;17.60;99.90;;;;;;4944329;28;20058;-93
2022/05/07 08:52:24;;;;;;;23.00;20.52;;;17.60;99.90;;;;;;4965183;28;20053;-91
2022/05/07 08:54:50;;;;;;;24.05;20.70;;;17.60;99.90;;;;;;4948930;28;20039;-92
2022/05/07 08:57:16;;;;;;;24.20;21.02;;;17.60;99.90;;;;;;4951021;28;20400;-92
2022/05/07 08:59:43;;;;;;;23.50;21.00;;;17.60;99.90;;;;;;4950113;28;20484;-91
2022/05/07 09:02:09;;;;;;;24.15;21.65;;;17.70;99.90;;;;;;4941780;28;20058;-90
2022/05/07 09:04:36;;;;;;;24.27;21.77;;;17.80;99.90;;;;;;4931923;28;20062;-92
2022/05/07 09:07:03;;;;;;;24.75;22.15;;;17.80;99.90;;;;;;4947284;28;20038;-91
2022/05/07 09:09:31;;;;;;;26.45;22.30;;;17.80;99.90;;;;;;4965221;28;20047;-90
2022/05/07 09:11:58;;;;;;;26.33;22.75;;;17.90;99.90;;;;;;4946043;28;20134;-90
2022/05/07 09:14:31;;;;;;;26.02;23.33;;;17.90;99.90;;;;;;4950574;28;20038;-90
2022/05/07 09:17:00;;;;;;;26.83;24.02;;;17.80;99.90;;;;;;4966544;28;20242;-90
2022/05/07 09:19:28;;;;;;;27.67;24.67;;;17.80;99.90;;;;;;4965300;28;20054;-91
2022/05/07 09:22:14;;;;;;;26.73;23.98;;;17.80;99.90;;;;;;4949426;28;20042;-91
2022/05/07 09:24:40;;;;;;;27.58;24.40;;;17.70;99.90;;;;;;4953663;28;20055;-91
2022/05/07 09:27:06;;;;;;;29.85;26.17;;;17.80;99.90;;;;;;4950049;28;20117;-92
2022/05/07 09:29:33;;;;;;;29.25;26.15;;;17.80;99.90;;;;;;4944202;28;20047;-92
2022/05/07 09:32:15;;;;;;;28.92;25.75;;;17.90;99.90;;;;;;4985072;28;20117;-93
2022/05/07 09:37:35;;;;;;;27.58;24.65;;;18.00;99.90;;;;;;4956238;28;20090;-92
2022/05/07 09:40:07;;;;;;;28.35;25.23;;;18.10;99.90;;;;;;4960798;28;20042;-93
2022/05/07 09:42:33;;;;;;;27.05;24.20;;;18.10;99.90;;;;;;4955141;28;20043;-92
2022/05/07 09:45:01;;;;;;;27.70;23.90;;;18.30;99.90;;;;;;4961299;28;20133;-91
2022/05/07 09:47:27;;;;;;;26.38;23.67;;;18.30;99.90;;;;;;4967628;28;20070;-91
2022/05/07 09:58:09;;;;;;;27.95;24.92;;;18.60;99.90;;;;;;4962434;28;20047;-92
2022/05/07 10:00:40;;;;;;;29.38;26.33;;;18.70;99.90;;;;;;4941781;28;20054;-87
2022/05/07 10:03:37;;;;;;;28.63;25.13;;;18.70;99.90;;;;;;4965479;28;20091;-90
2022/05/07 10:06:08;;;;;;;29.45;25.85;;;18.60;99.90;;;;;;4963211;28;20134;-93
2022/05/07 10:09:20;;;;;;;29.73;26.05;;;18.60;99.90;;;;;;4962143;28;20074;-90
2022/05/07 10:11:50;;;;;;;;;;;18.60;99.90;;;;;;4961370;28;20042;-89
2022/05/07 10:14:32;;;;;;;27.88;24.88;;;18.50;99.90;;;;;;4963113;28;20190;-89
2022/05/07 10:17:12;;;;;;;28.40;25.45;;;18.60;99.90;;;;;;4959228;28;20040;-91
2022/05/07 10:19:42;;;;;;;28.88;25.98;;;18.50;99.90;;;;;;4954774;28;20152;-87
2022/05/07 10:22:23;;;;;;;28.55;25.55;;;18.50;99.90;;;;;;4940283;28;20055;-91
2022/05/07 10:25:06;;;;;;;29.80;26.60;;;18.50;99.90;;;;;;4934566;28;20098;-87
2022/05/07 10:27:37;;;;;;;29.85;26.85;;;18.50;99.90;;;;;;4964409;28;20046;-88
2022/05/07 10:30:15;;;;;;;30.67;26.92;;;18.50;99.90;;;;;;4960357;28;20043;-90
2022/05/07 10:33:01;;;;;;;29.23;26.27;;;18.60;99.90;;;;;;4954289;28;20592;-89
2022/05/07 10:35:40;;;;;;;29.98;26.77;;;18.60;99.90;;;;;;4951052;28;20090;-88
2022/05/07 10:38:11;;;;;;;30.30;27.25;;;18.60;99.90;;;;;;4963215;28;20157;-87
2022/05/07 10:40:48;;;;;;;30.25;27.02;;;18.60;99.90;;;;;;4948368;28;20411;-89
2022/05/07 10:43:33;;;;;;;29.65;26.65;;;18.60;99.90;;;;;;4961152;28;20056;-89
2022/05/07 10:46:19;;;;;;;28.80;25.90;;;18.70;99.90;;;;;;4957200;28;20043;-90
2022/05/07 10:48:57;;;;;;;29.15;26.17;;;18.80;99.90;;;;;;4966220;28;20073;-90
2022/05/07 10:51:28;;;;;;;30.10;27.10;;;18.90;99.90;;;;;;4964071;28;20043;-87
2022/05/07 10:53:59;;;;;;;30.77;27.48;;;19.10;99.90;;;;;;4959114;28;20509;-85
2022/05/07 10:56:25;;;;;;;;;;;19.10;99.90;;;;;;4943137;28;20134;-90
2022/05/07 10:58:52;;;;;;;29.27;26.27;;;19.00;99.90;;;;;;4946088;28;20033;-88
2022/05/07 11:01:19;;;;;;;29.17;26.00;;;19.20;99.90;;;;;;4939264;28;20051;-88
2022/05/07 11:03:46;;;;;;;27.30;24.33;;;19.40;99.90;;;;;;4964889;28;20046;-86
2022/05/07 11:06:12;;;;;;;28.23;25.33;;;19.60;99.90;;;;;;4951786;28;20053;-89
2022/05/07 11:08:49;;;;;;;26.90;24.20;;;19.60;99.90;;;;;;4947000;28;20043;-89
2022/05/07 11:11:16;;;;;;;27.02;24.23;;;19.60;99.90;;;;;;4938446;29;20043;-93
2022/05/07 11:13:53;;;;;;;26.50;23.73;;;19.70;99.90;;;;;;4931757;28;20082;-87
2022/05/07 11:16:19;;;;;;;28.83;25.73;;;19.70;99.90;;;;;;4963698;28;20138;-90
2022/05/07 11:18:47;;;;;;;27.77;24.77;;;19.80;99.90;;;;;;4967109;28;20073;-91
2022/05/07 11:21:13;;;;;;;27.77;25.05;;;19.80;99.90;;;;;;4920025;28;20055;-90
2022/05/07 11:23:39;;;;;;;27.23;24.42;;;19.80;99.90;;;;;;4958051;28;20047;-89
2022/05/07 11:26:11;;;;;;;25.10;22.60;;;19.90;99.90;;;;;;4960035;28;20046;-89
2022/05/07 11:28:40;;;;;;;24.27;21.75;;;20.00;99.90;;;;;;4943225;28;20061;-90
2022/05/07 11:31:06;;;;;;;24.55;22.05;;;20.00;99.90;;;;;;4963114;28;20047;-90
2022/05/07 11:33:32;;;;;;;25.02;22.33;;;20.10;99.90;;;;;;4943208;28;20051;-92
2022/05/07 11:36:08;;;;;;;25.67;23.08;;;20.20;99.90;;;;;;4942390;29;20090;-92
2022/05/07 11:38:35;;;;;;;27.75;24.88;;;20.30;99.90;;;;;;4944715;28;20126;-89
2022/05/07 11:41:14;;;;;;;25.38;22.80;;;20.20;99.90;;;;;;4951384;28;20051;-90
2022/05/07 11:46:25;;;;;;;25.77;23.08;;;20.40;99.90;;;;;;4941621;28;20396;-93
2022/05/07 11:48:50;;;;;;;26.08;23.55;;;20.40;99.90;;;;;;4962108;28;20058;-93
2022/05/07 11:51:24;;;;;;;27.30;24.50;;;20.40;99.90;;;;;;4959368;28;20038;-93
2022/05/07 11:53:49;;;;;;;25.75;23.25;;;20.60;99.90;;;;;;4938629;29;20047;-90
2022/05/07 11:56:16;;;;;;;25.08;22.48;;;20.60;99.90;;;;;;4965636;28;20053;-92
2022/05/07 11:58:48;;;;;;;24.83;22.33;;;20.40;99.90;;;;;;4964572;28;20377;-89
2022/05/07 12:01:21;;;;;;;23.45;20.92;;;20.50;99.90;;;;;;4939953;28;20126;-88
2022/05/07 12:03:47;;;;;;;24.25;21.77;;;20.40;99.90;;;;;;4941336;28;20047;-90
2022/05/07 12:06:32;;;;;;;23.65;21.25;;;20.40;99.90;;;;;;4962032;28;20038;-94
2022/05/07 12:08:58;;;;;;;23.67;21.25;;;20.40;99.90;;;;;;4962658;28;20158;-92
2022/05/07 12:11:24;;;;;;;21.90;19.38;;;20.20;99.90;;;;;;4959559;28;20162;-91
2022/05/07 12:13:50;;;;;;;24.55;19.38;;;20.10;99.90;;;;;;4943394;28;20147;-91
2022/05/07 12:19:00;;;;;;;21.98;19.27;;;20.00;99.90;;;;;;4961473;28;20138;-89
2022/05/07 12:29:52;;;;;;;20.08;18.00;;;19.90;99.90;;;;;;4942628;28;20050;-88
2022/05/07 12:32:23;;;;;;;23.70;21.13;;;20.20;99.90;;;;;;4960337;28;20101;-91
2022/05/07 12:34:49;;;;;;;24.70;21.48;;;20.30;99.90;;;;;;4928017;28;20070;-91
2022/05/07 12:37:15;;;;;;;24.75;22.23;;;20.30;99.90;;;;;;4943578;28;20051;-89
2022/05/07 12:39:41;;;;;;;25.02;22.33;;;20.30;99.90;;;;;;4956020;28;20047;-91
2022/05/07 12:42:09;;;;;;;23.02;20.58;;;20.20;99.90;;;;;;4957164;28;20145;-88
2022/05/07 12:44:34;;;;;;;25.13;22.40;;;20.20;99.90;;;;;;4975459;28;20114;-89
2022/05/07 12:47:00;;;;;;;26.63;23.73;;;20.20;99.90;;;;;;4959919;28;20515;-88
2022/05/07 12:49:26;;;;;;;25.10;22.42;;;20.20;99.90;;;;;;4947925;28;20122;-87
2022/05/07 12:51:53;;;;;;;24.98;22.38;;;20.20;99.90;;;;;;4948415;28;20106;-89
2022/05/07 12:54:19;;;;;;;27.55;24.45;;;20.20;99.90;;;;;;4941077;28;20047;-90
2022/05/07 12:56:46;;;;;;;25.35;21.40;;;20.20;99.90;;;;;;4955855;28;20074;-88
2022/05/07 12:59:12;;;;;;;25.73;22.65;;;20.20;99.90;;;;;;4943181;28;20055;-89
2022/05/07 13:01:38;;;;;;;24.52;21.90;;;20.20;99.90;;;;;;4943211;28;20050;-91
2022/05/07 13:04:04;;;;;;;25.92;23.13;;;20.10;99.90;;;;;;4915980;28;20193;-88
2022/05/07 13:06:29;;;;;;;26.63;23.08;;;20.00;99.90;;;;;;4942846;28;20469;-89
2022/05/07 13:08:58;;;;;;;29.02;25.98;;;20.00;99.90;;;;;;4925598;28;20183;-88
2022/05/07 13:11:24;;;;;;;27.83;24.75;;;19.90;99.90;;;;;;4957869;28;20031;-89
2022/05/07 13:13:51;;;;;;;31.02;25.63;;;19.80;99.90;;;;;;4952205;28;20051;-92
2022/05/07 13:16:17;;;;;;;28.88;25.48;;;19.80;99.90;;;;;;4956288;28;20050;-90
2022/05/07 13:18:44;;;;;;;31.55;27.20;;;19.80;99.90;;;;;;4971059;28;20488;-89